sensor_id;sensor_type;location;lat;lon;timestamp;temperature;humidity
55211;DHT22;41082;52.822;6.666;2022-07-10T00:00:30;14.00;99.90
55211;DHT22;41082;52.822;6.666;2022-07-10T00:02:56;13.90;99.90
55211;DHT22;41082;52.822;6.666;2022-07-10T00:05:22;13.90;99.90
55211;DHT22;41082;52.822;6.666;2022-07-10T00:07:49;13.90;99.90
55211;DHT22;41082;52.822;6.666;2022-07-10T00:10:19;13.90;99.90
55211;DHT22;41082;52.822;6.666;2022-07-10T00:12:46;13.90;99.90
55211;DHT22;41082;52.822;6.666;2022-07-10T00:15:12;13.90;99.90
55211;DHT22;41082;52.822;6.666;2022-07-10T00:17:38;13.90;99.90
55211;DHT22;41082;52.822;6.666;2022-07-10T00:20:06;13.90;99.90
55211;DHT22;41082;52.822;6.666;2022-07-10T00:22:33;13.80;99.90
55211;DHT22;41082;52.822;6.666;2022-07-10T00:25:01;13.80;99.90
55211;DHT22;41082;52.822;6.666;2022-07-10T00:27:26;13.80;99.90
55211;DHT22;41082;52.822;6.666;2022-07-10T00:29:52;13.80;99.90
55211;DHT22;41082;52.822;6.666;2022-07-10T00:32:17;13.80;99.90
55211;DHT22;41082;52.822;6.666;2022-07-10T00:34:43;13.80;99.90
55211;DHT22;41082;52.822;6.666;2022-07-10T00:37:09;13.80;99.90
55211;DHT22;41082;52.822;6.666;2022-07-10T00:39:34;13.80;99.90
55211;DHT22;41082;52.822;6.666;2022-07-10T00:42:10;13.80;99.90
55211;DHT22;41082;52.822;6.666;2022-07-10T00:44:36;13.80;99.90
55211;DHT22;41082;52.822;6.666;2022-07-10T00:47:05;13.70;99.90
55211;DHT22;41082;52.822;6.666;2022-07-10T00:49:35;13.70;99.90
55211;DHT22;41082;52.822;6.666;2022-07-10T00:52:03;13.70;99.90
55211;DHT22;41082;52.822;6.666;2022-07-10T00:54:31;13.70;99.90
55211;DHT22;41082;52.822;6.666;2022-07-10T00:56:57;13.60;99.90
55211;DHT22;41082;52.822;6.666;2022-07-10T00:59:24;13.70;99.90
55211;DHT22;41082;52.822;6.666;2022-07-10T01:01:50;13.70;99.90
55211;DHT22;41082;52.822;6.666;2022-07-10T01:04:17;13.60;99.90
55211;DHT22;41082;52.822;6.666;2022-07-10T01:06:42;13.60;99.90
55211;DHT22;41082;52.822;6.666;2022-07-10T01:09:08;13.60;99.90
55211;DHT22;41082;52.822;6.666;2022-07-10T01:11:34;13.60;99.90
55211;DHT22;41082;52.822;6.666;2022-07-10T01:14:01;13.60;99.90
55211;DHT22;41082;52.822;6.666;2022-07-10T01:16:28;13.60;99.90
55211;DHT22;41082;52.822;6.666;2022-07-10T01:18:55;13.60;99.90
55211;DHT22;41082;52.822;6.666;2022-07-10T01:21:28;13.60;99.90
55211;DHT22;41082;52.822;6.666;2022-07-10T01:23:55;13.50;99.90
55211;DHT22;41082;52.822;6.666;2022-07-10T01:26:21;13.60;99.90
55211;DHT22;41082;52.822;6.666;2022-07-10T01:28:50;13.60;99.90
55211;DHT22;41082;52.822;6.666;2022-07-10T01:31:20;13.60;99.90
55211;DHT22;41082;52.822;6.666;2022-07-10T01:33:49;13.60;99.90
55211;DHT22;41082;52.822;6.666;2022-07-10T01:36:15;13.60;99.90
55211;DHT22;41082;52.822;6.666;2022-07-10T01:38:41;13.60;99.90
55211;DHT22;41082;52.822;6.666;2022-07-10T01:41:07;13.60;99.90
55211;DHT22;41082;52.822;6.666;2022-07-10T01:43:37;13.60;99.90
55211;DHT22;41082;52.822;6.666;2022-07-10T01:46:03;13.60;99.90
55211;DHT22;41082;52.822;6.666;2022-07-10T01:48:30;13.60;99.90
55211;DHT22;41082;52.822;6.666;2022-07-10T01:50:56;13.60;99.90
55211;DHT22;41082;52.822;6.666;2022-07-10T01:53:21;13.60;99.90
55211;DHT22;41082;52.822;6.666;2022-07-10T01:55:47;13.60;99.90
55211;DHT22;41082;52.822;6.666;2022-07-10T01:58:12;13.60;99.90
55211;DHT22;41082;52.822;6.666;2022-07-10T02:00:38;13.60;99.90
55211;DHT22;41082;52.822;6.666;2022-07-10T02:03:03;13.60;99.90
55211;DHT22;41082;52.822;6.666;2022-07-10T02:05:48;13.60;99.90
55211;DHT22;41082;52.822;6.666;2022-07-10T02:08:13;13.60;99.90
55211;DHT22;41082;52.822;6.666;2022-07-10T02:10:39;13.60;99.90
55211;DHT22;41082;52.822;6.666;2022-07-10T02:13:04;13.50;99.90
55211;DHT22;41082;52.822;6.666;2022-07-10T02:15:30;13.50;99.90
55211;DHT22;41082;52.822;6.666;2022-07-10T02:17:56;13.50;99.90
55211;DHT22;41082;52.822;6.666;2022-07-10T02:20:21;13.50;99.90
55211;DHT22;41082;52.822;6.666;2022-07-10T02:22:47;13.50;99.90
55211;DHT22;41082;52.822;6.666;2022-07-10T02:25:12;13.50;99.90
55211;DHT22;41082;52.822;6.666;2022-07-10T02:27:38;13.40;99.90
55211;DHT22;41082;52.822;6.666;2022-07-10T02:30:05;13.40;99.90
55211;DHT22;41082;52.822;6.666;2022-07-10T02:32:30;13.40;99.90
55211;DHT22;41082;52.822;6.666;2022-07-10T02:34:56;13.40;99.90
55211;DHT22;41082;52.822;6.666;2022-07-10T02:37:21;13.30;99.90
55211;DHT22;41082;52.822;6.666;2022-07-10T02:39:47;13.30;99.90
55211;DHT22;41082;52.822;6.666;2022-07-10T02:42:12;13.30;99.90
55211;DHT22;41082;52.822;6.666;2022-07-10T02:44:38;13.30;99.90
55211;DHT22;41082;52.822;6.666;2022-07-10T02:47:04;13.20;99.90
55211;DHT22;41082;52.822;6.666;2022-07-10T02:49:29;13.20;99.90
55211;DHT22;41082;52.822;6.666;2022-07-10T02:51:55;13.20;99.90
55211;DHT22;41082;52.822;6.666;2022-07-10T02:54:20;13.20;99.90
55211;DHT22;41082;52.822;6.666;2022-07-10T02:56:46;13.20;99.90
55211;DHT22;41082;52.822;6.666;2022-07-10T02:59:11;13.20;99.90
55211;DHT22;41082;52.822;6.666;2022-07-10T03:01:37;13.20;99.90
55211;DHT22;41082;52.822;6.666;2022-07-10T03:04:03;13.10;99.90
55211;DHT22;41082;52.822;6.666;2022-07-10T03:06:28;13.10;99.90
55211;DHT22;41082;52.822;6.666;2022-07-10T03:08:54;13.10;99.90
55211;DHT22;41082;52.822;6.666;2022-07-10T03:11:19;13.10;99.90
55211;DHT22;41082;52.822;6.666;2022-07-10T03:13:45;13.10;99.90
55211;DHT22;41082;52.822;6.666;2022-07-10T03:16:10;13.10;99.90
55211;DHT22;41082;52.822;6.666;2022-07-10T03:18:36;13.00;99.90
55211;DHT22;41082;52.822;6.666;2022-07-10T03:21:02;13.00;99.90
55211;DHT22;41082;52.822;6.666;2022-07-10T03:23:27;13.00;99.90
55211;DHT22;41082;52.822;6.666;2022-07-10T03:25:53;13.00;99.90
55211;DHT22;41082;52.822;6.666;2022-07-10T03:28:18;13.00;99.90
55211;DHT22;41082;52.822;6.666;2022-07-10T03:30:44;13.00;99.90
55211;DHT22;41082;52.822;6.666;2022-07-10T03:33:09;13.00;99.90
55211;DHT22;41082;52.822;6.666;2022-07-10T03:35:35;12.90;99.90
55211;DHT22;41082;52.822;6.666;2022-07-10T03:38:01;13.00;99.90
55211;DHT22;41082;52.822;6.666;2022-07-10T03:40:27;12.90;99.90
55211;DHT22;41082;52.822;6.666;2022-07-10T03:42:53;12.90;99.90
55211;DHT22;41082;52.822;6.666;2022-07-10T03:45:18;13.00;99.90
55211;DHT22;41082;52.822;6.666;2022-07-10T03:47:44;12.90;99.90
55211;DHT22;41082;52.822;6.666;2022-07-10T03:50:09;13.00;99.90
55211;DHT22;41082;52.822;6.666;2022-07-10T03:52:35;13.00;99.90
55211;DHT22;41082;52.822;6.666;2022-07-10T03:55:01;13.10;99.90
55211;DHT22;41082;52.822;6.666;2022-07-10T03:57:26;13.10;99.90
55211;DHT22;41082;52.822;6.666;2022-07-10T04:00:11;13.10;99.90
55211;DHT22;41082;52.822;6.666;2022-07-10T04:02:37;13.10;99.90
55211;DHT22;41082;52.822;6.666;2022-07-10T04:05:07;13.20;99.90
55211;DHT22;41082;52.822;6.666;2022-07-10T04:07:34;13.20;99.90
55211;DHT22;41082;52.822;6.666;2022-07-10T04:10:00;13.30;99.90
55211;DHT22;41082;52.822;6.666;2022-07-10T04:12:25;13.30;99.90
55211;DHT22;41082;52.822;6.666;2022-07-10T04:14:51;13.40;99.90
55211;DHT22;41082;52.822;6.666;2022-07-10T04:17:17;13.40;99.90
55211;DHT22;41082;52.822;6.666;2022-07-10T04:19:43;13.40;99.90
55211;DHT22;41082;52.822;6.666;2022-07-10T04:22:09;13.50;99.90
55211;DHT22;41082;52.822;6.666;2022-07-10T04:24:35;13.50;99.90
55211;DHT22;41082;52.822;6.666;2022-07-10T04:27:01;13.50;99.90
55211;DHT22;41082;52.822;6.666;2022-07-10T04:29:26;13.60;99.90
55211;DHT22;41082;52.822;6.666;2022-07-10T04:31:52;13.60;99.90
55211;DHT22;41082;52.822;6.666;2022-07-10T04:34:18;13.60;99.90
55211;DHT22;41082;52.822;6.666;2022-07-10T04:36:43;13.70;99.90
55211;DHT22;41082;52.822;6.666;2022-07-10T04:39:09;13.70;99.90
55211;DHT22;41082;52.822;6.666;2022-07-10T04:41:34;13.80;99.90
55211;DHT22;41082;52.822;6.666;2022-07-10T04:44:00;13.90;99.90
55211;DHT22;41082;52.822;6.666;2022-07-10T04:46:26;13.90;99.90
55211;DHT22;41082;52.822;6.666;2022-07-10T04:48:52;13.90;99.90
55211;DHT22;41082;52.822;6.666;2022-07-10T04:51:18;14.00;99.90
55211;DHT22;41082;52.822;6.666;2022-07-10T04:53:43;14.00;99.90
55211;DHT22;41082;52.822;6.666;2022-07-10T04:56:09;14.00;99.90
55211;DHT22;41082;52.822;6.666;2022-07-10T04:58:35;14.00;99.90
55211;DHT22;41082;52.822;6.666;2022-07-10T05:01:01;14.00;99.90
55211;DHT22;41082;52.822;6.666;2022-07-10T05:03:28;14.10;99.90
55211;DHT22;41082;52.822;6.666;2022-07-10T05:05:54;14.20;99.90
55211;DHT22;41082;52.822;6.666;2022-07-10T05:08:19;14.10;99.90
55211;DHT22;41082;52.822;6.666;2022-07-10T05:10:45;14.20;99.90
55211;DHT22;41082;52.822;6.666;2022-07-10T05:13:11;14.10;99.90
55211;DHT22;41082;52.822;6.666;2022-07-10T05:15:37;14.30;99.90
55211;DHT22;41082;52.822;6.666;2022-07-10T05:18:03;14.30;99.90
55211;DHT22;41082;52.822;6.666;2022-07-10T05:20:28;14.40;99.90
55211;DHT22;41082;52.822;6.666;2022-07-10T05:22:54;14.40;99.90
55211;DHT22;41082;52.822;6.666;2022-07-10T05:25:20;14.50;99.90
55211;DHT22;41082;52.822;6.666;2022-07-10T05:27:45;14.50;99.90
55211;DHT22;41082;52.822;6.666;2022-07-10T05:30:11;14.50;99.90
55211;DHT22;41082;52.822;6.666;2022-07-10T05:32:45;14.60;99.90
55211;DHT22;41082;52.822;6.666;2022-07-10T05:35:13;14.70;99.90
55211;DHT22;41082;52.822;6.666;2022-07-10T05:37:39;14.70;99.90
55211;DHT22;41082;52.822;6.666;2022-07-10T05:40:05;14.80;99.90
55211;DHT22;41082;52.822;6.666;2022-07-10T05:42:31;14.80;99.90
55211;DHT22;41082;52.822;6.666;2022-07-10T05:44:56;14.90;99.90
55211;DHT22;41082;52.822;6.666;2022-07-10T05:47:22;14.90;99.90
55211;DHT22;41082;52.822;6.666;2022-07-10T05:49:47;15.00;99.90
55211;DHT22;41082;52.822;6.666;2022-07-10T05:52:13;15.10;99.90
55211;DHT22;41082;52.822;6.666;2022-07-10T05:54:39;15.10;99.90
55211;DHT22;41082;52.822;6.666;2022-07-10T05:57:05;15.10;99.90
55211;DHT22;41082;52.822;6.666;2022-07-10T05:59:34;15.10;99.90
55211;DHT22;41082;52.822;6.666;2022-07-10T06:02:03;15.20;99.90
55211;DHT22;41082;52.822;6.666;2022-07-10T06:04:29;15.20;99.90
55211;DHT22;41082;52.822;6.666;2022-07-10T06:06:54;15.30;99.90
55211;DHT22;41082;52.822;6.666;2022-07-10T06:09:20;15.30;99.90
55211;DHT22;41082;52.822;6.666;2022-07-10T06:11:45;15.40;99.90
55211;DHT22;41082;52.822;6.666;2022-07-10T06:14:13;15.40;99.90
55211;DHT22;41082;52.822;6.666;2022-07-10T06:16:39;15.50;99.90
55211;DHT22;41082;52.822;6.666;2022-07-10T06:19:05;15.60;99.90
55211;DHT22;41082;52.822;6.666;2022-07-10T06:21:31;15.60;99.90
55211;DHT22;41082;52.822;6.666;2022-07-10T06:23:56;15.70;99.90
55211;DHT22;41082;52.822;6.666;2022-07-10T06:26:22;15.70;99.90
55211;DHT22;41082;52.822;6.666;2022-07-10T06:28:48;15.70;99.90
55211;DHT22;41082;52.822;6.666;2022-07-10T06:31:14;15.70;99.90
55211;DHT22;41082;52.822;6.666;2022-07-10T06:33:39;15.80;99.90
55211;DHT22;41082;52.822;6.666;2022-07-10T06:36:05;15.70;99.90
55211;DHT22;41082;52.822;6.666;2022-07-10T06:38:31;15.80;99.90
55211;DHT22;41082;52.822;6.666;2022-07-10T06:40:57;15.80;99.90
55211;DHT22;41082;52.822;6.666;2022-07-10T06:43:22;15.80;99.90
55211;DHT22;41082;52.822;6.666;2022-07-10T06:45:48;15.80;99.90
55211;DHT22;41082;52.822;6.666;2022-07-10T06:48:14;15.80;99.90
55211;DHT22;41082;52.822;6.666;2022-07-10T06:50:40;15.80;99.90
55211;DHT22;41082;52.822;6.666;2022-07-10T06:53:06;15.80;99.90
55211;DHT22;41082;52.822;6.666;2022-07-10T06:55:32;15.80;99.90
55211;DHT22;41082;52.822;6.666;2022-07-10T06:57:58;15.90;99.90
55211;DHT22;41082;52.822;6.666;2022-07-10T07:00:24;15.90;99.90
55211;DHT22;41082;52.822;6.666;2022-07-10T07:02:50;16.00;99.90
55211;DHT22;41082;52.822;6.666;2022-07-10T07:05:15;16.00;99.90
55211;DHT22;41082;52.822;6.666;2022-07-10T07:07:41;16.10;99.90
55211;DHT22;41082;52.822;6.666;2022-07-10T07:10:07;16.10;99.90
55211;DHT22;41082;52.822;6.666;2022-07-10T07:12:33;16.10;99.90
55211;DHT22;41082;52.822;6.666;2022-07-10T07:14:59;16.20;99.90
55211;DHT22;41082;52.822;6.666;2022-07-10T07:17:24;16.20;99.90
55211;DHT22;41082;52.822;6.666;2022-07-10T07:19:58;16.30;99.90
55211;DHT22;41082;52.822;6.666;2022-07-10T07:22:43;16.40;99.90
55211;DHT22;41082;52.822;6.666;2022-07-10T07:25:27;16.40;99.90
55211;DHT22;41082;52.822;6.666;2022-07-10T07:27:53;16.50;99.90
55211;DHT22;41082;52.822;6.666;2022-07-10T07:30:19;16.60;99.90
55211;DHT22;41082;52.822;6.666;2022-07-10T07:32:46;16.70;99.90
55211;DHT22;41082;52.822;6.666;2022-07-10T07:35:13;16.80;99.90
55211;DHT22;41082;52.822;6.666;2022-07-10T07:37:44;16.80;99.90
55211;DHT22;41082;52.822;6.666;2022-07-10T07:40:13;17.00;99.90
55211;DHT22;41082;52.822;6.666;2022-07-10T07:42:39;17.00;99.90
55211;DHT22;41082;52.822;6.666;2022-07-10T07:45:07;17.10;99.90
55211;DHT22;41082;52.822;6.666;2022-07-10T07:47:43;17.20;99.90
55211;DHT22;41082;52.822;6.666;2022-07-10T07:50:11;17.20;99.90
55211;DHT22;41082;52.822;6.666;2022-07-10T07:52:36;17.20;99.90
55211;DHT22;41082;52.822;6.666;2022-07-10T07:55:02;17.30;99.90
55211;DHT22;41082;52.822;6.666;2022-07-10T07:57:28;17.40;99.90
55211;DHT22;41082;52.822;6.666;2022-07-10T07:59:53;17.40;99.90
55211;DHT22;41082;52.822;6.666;2022-07-10T08:02:19;17.50;99.90
55211;DHT22;41082;52.822;6.666;2022-07-10T08:04:44;17.60;99.90
55211;DHT22;41082;52.822;6.666;2022-07-10T08:07:10;17.60;99.90
55211;DHT22;41082;52.822;6.666;2022-07-10T08:09:35;17.70;99.90
55211;DHT22;41082;52.822;6.666;2022-07-10T08:12:01;17.70;99.90
55211;DHT22;41082;52.822;6.666;2022-07-10T08:14:26;17.70;99.90
55211;DHT22;41082;52.822;6.666;2022-07-10T08:16:52;17.70;99.90
55211;DHT22;41082;52.822;6.666;2022-07-10T08:19:18;17.60;99.90
55211;DHT22;41082;52.822;6.666;2022-07-10T08:21:44;17.60;99.90
55211;DHT22;41082;52.822;6.666;2022-07-10T08:24:09;17.60;99.90
55211;DHT22;41082;52.822;6.666;2022-07-10T08:26:35;17.60;99.90
55211;DHT22;41082;52.822;6.666;2022-07-10T08:29:00;17.50;99.90
55211;DHT22;41082;52.822;6.666;2022-07-10T08:31:26;17.50;99.90
55211;DHT22;41082;52.822;6.666;2022-07-10T08:33:51;17.50;99.90
55211;DHT22;41082;52.822;6.666;2022-07-10T08:36:18;17.50;99.90
55211;DHT22;41082;52.822;6.666;2022-07-10T08:38:43;17.40;99.90
55211;DHT22;41082;52.822;6.666;2022-07-10T08:41:10;17.40;99.90
55211;DHT22;41082;52.822;6.666;2022-07-10T08:43:38;17.40;99.90
55211;DHT22;41082;52.822;6.666;2022-07-10T08:46:05;17.40;99.90
55211;DHT22;41082;52.822;6.666;2022-07-10T08:48:32;17.40;99.90
55211;DHT22;41082;52.822;6.666;2022-07-10T08:51:03;17.40;99.90
55211;DHT22;41082;52.822;6.666;2022-07-10T08:53:31;17.50;99.90
55211;DHT22;41082;52.822;6.666;2022-07-10T08:56:00;17.40;99.90
55211;DHT22;41082;52.822;6.666;2022-07-10T08:58:27;17.40;99.90
55211;DHT22;41082;52.822;6.666;2022-07-10T09:00:53;17.30;99.90
55211;DHT22;41082;52.822;6.666;2022-07-10T09:03:19;17.40;99.90
55211;DHT22;41082;52.822;6.666;2022-07-10T09:05:45;17.50;99.90
55211;DHT22;41082;52.822;6.666;2022-07-10T09:08:25;17.50;99.90
55211;DHT22;41082;52.822;6.666;2022-07-10T09:11:18;17.60;99.90
55211;DHT22;41082;52.822;6.666;2022-07-10T09:13:54;17.70;99.90
55211;DHT22;41082;52.822;6.666;2022-07-10T09:16:24;17.80;99.90
55211;DHT22;41082;52.822;6.666;2022-07-10T09:18:50;17.90;99.90
55211;DHT22;41082;52.822;6.666;2022-07-10T09:21:16;17.90;99.90
55211;DHT22;41082;52.822;6.666;2022-07-10T09:23:42;18.00;99.90
55211;DHT22;41082;52.822;6.666;2022-07-10T09:26:07;17.90;99.90
55211;DHT22;41082;52.822;6.666;2022-07-10T09:28:33;17.90;99.90
55211;DHT22;41082;52.822;6.666;2022-07-10T09:30:58;17.90;99.90
55211;DHT22;41082;52.822;6.666;2022-07-10T09:33:26;18.00;99.90
55211;DHT22;41082;52.822;6.666;2022-07-10T09:36:08;18.10;99.90
55211;DHT22;41082;52.822;6.666;2022-07-10T09:41:29;18.10;99.90
55211;DHT22;41082;52.822;6.666;2022-07-10T09:44:00;18.00;99.90
55211;DHT22;41082;52.822;6.666;2022-07-10T09:46:39;18.00;99.90
55211;DHT22;41082;52.822;6.666;2022-07-10T09:49:13;17.80;99.90
55211;DHT22;41082;52.822;6.666;2022-07-10T09:51:42;17.80;99.90
55211;DHT22;41082;52.822;6.666;2022-07-10T09:54:09;17.80;99.90
55211;DHT22;41082;52.822;6.666;2022-07-10T09:56:44;17.80;99.90
55211;DHT22;41082;52.822;6.666;2022-07-10T09:59:12;17.80;99.90
55211;DHT22;41082;52.822;6.666;2022-07-10T10:01:51;17.90;99.90
55211;DHT22;41082;52.822;6.666;2022-07-10T10:04:19;18.00;99.90
55211;DHT22;41082;52.822;6.666;2022-07-10T10:06:53;18.10;99.90
55211;DHT22;41082;52.822;6.666;2022-07-10T10:09:23;18.20;99.90
55211;DHT22;41082;52.822;6.666;2022-07-10T10:11:52;18.30;99.90
55211;DHT22;41082;52.822;6.666;2022-07-10T10:14:19;18.40;99.90
55211;DHT22;41082;52.822;6.666;2022-07-10T10:16:46;18.40;99.90
55211;DHT22;41082;52.822;6.666;2022-07-10T10:19:14;18.50;99.90
55211;DHT22;41082;52.822;6.666;2022-07-10T10:21:59;18.50;99.90
55211;DHT22;41082;52.822;6.666;2022-07-10T10:24:26;18.60;99.90
55211;DHT22;41082;52.822;6.666;2022-07-10T10:26:52;18.50;99.90
55211;DHT22;41082;52.822;6.666;2022-07-10T10:29:18;18.50;99.90
55211;DHT22;41082;52.822;6.666;2022-07-10T10:31:44;18.50;99.90
55211;DHT22;41082;52.822;6.666;2022-07-10T10:34:10;18.50;99.90
55211;DHT22;41082;52.822;6.666;2022-07-10T10:39:15;18.40;99.90
55211;DHT22;41082;52.822;6.666;2022-07-10T10:41:52;18.50;99.90
55211;DHT22;41082;52.822;6.666;2022-07-10T10:49:16;19.10;99.90
55211;DHT22;41082;52.822;6.666;2022-07-10T10:52:03;19.20;99.90
55211;DHT22;41082;52.822;6.666;2022-07-10T10:54:30;19.10;99.90
55211;DHT22;41082;52.822;6.666;2022-07-10T10:57:16;19.00;99.90
55211;DHT22;41082;52.822;6.666;2022-07-10T10:59:53;18.90;99.90
55211;DHT22;41082;52.822;6.666;2022-07-10T11:02:25;18.90;99.90
55211;DHT22;41082;52.822;6.666;2022-07-10T11:04:58;19.00;99.90
55211;DHT22;41082;52.822;6.666;2022-07-10T11:08:03;19.20;99.90
55211;DHT22;41082;52.822;6.666;2022-07-10T11:10:34;19.40;99.90
55211;DHT22;41082;52.822;6.666;2022-07-10T11:13:01;19.50;99.90
55211;DHT22;41082;52.822;6.666;2022-07-10T11:15:28;19.60;99.90
55211;DHT22;41082;52.822;6.666;2022-07-10T11:18:06;19.60;99.90
55211;DHT22;41082;52.822;6.666;2022-07-10T11:20:33;19.80;99.90
55211;DHT22;41082;52.822;6.666;2022-07-10T11:26:09;20.00;99.90
55211;DHT22;41082;52.822;6.666;2022-07-10T11:28:41;20.10;99.90
55211;DHT22;41082;52.822;6.666;2022-07-10T11:31:06;20.20;99.90
55211;DHT22;41082;52.822;6.666;2022-07-10T11:33:43;20.30;99.90
55211;DHT22;41082;52.822;6.666;2022-07-10T11:36:14;20.30;99.90
55211;DHT22;41082;52.822;6.666;2022-07-10T11:38:41;20.40;99.90
55211;DHT22;41082;52.822;6.666;2022-07-10T11:41:15;20.40;99.90
55211;DHT22;41082;52.822;6.666;2022-07-10T11:44:03;20.40;99.90
55211;DHT22;41082;52.822;6.666;2022-07-10T11:46:31;20.30;99.90
55211;DHT22;41082;52.822;6.666;2022-07-10T11:48:57;20.30;99.90
55211;DHT22;41082;52.822;6.666;2022-07-10T11:54:08;20.40;99.90
55211;DHT22;41082;52.822;6.666;2022-07-10T11:56:45;20.50;99.90
55211;DHT22;41082;52.822;6.666;2022-07-10T11:59:12;20.70;99.90
55211;DHT22;41082;52.822;6.666;2022-07-10T12:01:43;20.70;99.90
55211;DHT22;41082;52.822;6.666;2022-07-10T12:04:09;20.60;99.90
55211;DHT22;41082;52.822;6.666;2022-07-10T12:06:37;20.40;99.90
55211;DHT22;41082;52.822;6.666;2022-07-10T12:09:04;20.10;99.90
55211;DHT22;41082;52.822;6.666;2022-07-10T12:11:30;19.80;99.90
55211;DHT22;41082;52.822;6.666;2022-07-10T12:14:12;19.60;99.90
55211;DHT22;41082;52.822;6.666;2022-07-10T12:16:40;19.50;99.90
55211;DHT22;41082;52.822;6.666;2022-07-10T12:19:08;19.40;99.90
55211;DHT22;41082;52.822;6.666;2022-07-10T12:21:36;19.30;99.90
55211;DHT22;41082;52.822;6.666;2022-07-10T12:24:02;19.30;99.90
55211;DHT22;41082;52.822;6.666;2022-07-10T12:26:35;19.30;99.90
55211;DHT22;41082;52.822;6.666;2022-07-10T12:29:02;19.30;99.90
55211;DHT22;41082;52.822;6.666;2022-07-10T12:31:29;19.30;99.90
55211;DHT22;41082;52.822;6.666;2022-07-10T12:34:02;19.20;99.90
55211;DHT22;41082;52.822;6.666;2022-07-10T12:36:44;19.20;99.90
55211;DHT22;41082;52.822;6.666;2022-07-10T12:39:10;19.10;99.90
55211;DHT22;41082;52.822;6.666;2022-07-10T12:42:02;19.00;99.90
55211;DHT22;41082;52.822;6.666;2022-07-10T12:47:10;18.60;99.90
55211;DHT22;41082;52.822;6.666;2022-07-10T12:52:39;18.50;99.90
55211;DHT22;41082;52.822;6.666;2022-07-10T12:55:13;18.50;99.90
55211;DHT22;41082;52.822;6.666;2022-07-10T12:57:56;18.60;99.90
55211;DHT22;41082;52.822;6.666;2022-07-10T13:00:32;18.60;99.90
55211;DHT22;41082;52.822;6.666;2022-07-10T13:03:10;18.60;99.90
55211;DHT22;41082;52.822;6.666;2022-07-10T13:05:41;18.50;99.90
55211;DHT22;41082;52.822;6.666;2022-07-10T13:08:09;18.60;99.90
55211;DHT22;41082;52.822;6.666;2022-07-10T13:10:37;18.50;99.90
55211;DHT22;41082;52.822;6.666;2022-07-10T13:13:03;18.60;99.90
55211;DHT22;41082;52.822;6.666;2022-07-10T13:15:30;18.60;99.90
55211;DHT22;41082;52.822;6.666;2022-07-10T13:17:58;18.60;99.90
55211;DHT22;41082;52.822;6.666;2022-07-10T13:20:24;18.70;99.90
55211;DHT22;41082;52.822;6.666;2022-07-10T13:22:49;18.90;99.90
55211;DHT22;41082;52.822;6.666;2022-07-10T13:25:15;19.00;99.90
55211;DHT22;41082;52.822;6.666;2022-07-10T13:27:40;19.20;99.90
55211;DHT22;41082;52.822;6.666;2022-07-10T13:30:07;19.30;99.90
55211;DHT22;41082;52.822;6.666;2022-07-10T13:32:33;19.40;99.90
55211;DHT22;41082;52.822;6.666;2022-07-10T13:34:59;19.50;99.90
55211;DHT22;41082;52.822;6.666;2022-07-10T13:37:25;19.50;99.90
55211;DHT22;41082;52.822;6.666;2022-07-10T13:39:50;19.40;99.90
55211;DHT22;41082;52.822;6.666;2022-07-10T13:42:16;19.40;99.90
55211;DHT22;41082;52.822;6.666;2022-07-10T13:44:42;19.40;99.90
55211;DHT22;41082;52.822;6.666;2022-07-10T13:47:07;19.40;99.90
55211;DHT22;41082;52.822;6.666;2022-07-10T13:49:33;19.40;99.90
55211;DHT22;41082;52.822;6.666;2022-07-10T13:51:59;19.50;99.90
55211;DHT22;41082;52.822;6.666;2022-07-10T13:54:25;19.50;99.90
55211;DHT22;41082;52.822;6.666;2022-07-10T13:56:51;19.60;99.90
55211;DHT22;41082;52.822;6.666;2022-07-10T13:59:16;19.70;99.90
55211;DHT22;41082;52.822;6.666;2022-07-10T14:01:42;19.80;99.90
55211;DHT22;41082;52.822;6.666;2022-07-10T14:04:07;19.90;99.90
55211;DHT22;41082;52.822;6.666;2022-07-10T14:06:33;19.90;99.90
55211;DHT22;41082;52.822;6.666;2022-07-10T14:08:59;19.90;99.90
55211;DHT22;41082;52.822;6.666;2022-07-10T14:11:24;19.80;99.90
55211;DHT22;41082;52.822;6.666;2022-07-10T14:13:50;19.80;99.90
55211;DHT22;41082;52.822;6.666;2022-07-10T14:16:16;19.70;99.90
55211;DHT22;41082;52.822;6.666;2022-07-10T14:18:41;19.70;99.90
55211;DHT22;41082;52.822;6.666;2022-07-10T14:21:11;19.70;99.90
55211;DHT22;41082;52.822;6.666;2022-07-10T14:23:40;19.70;99.90
55211;DHT22;41082;52.822;6.666;2022-07-10T14:26:09;19.80;99.90
55211;DHT22;41082;52.822;6.666;2022-07-10T14:28:36;19.90;99.90
55211;DHT22;41082;52.822;6.666;2022-07-10T14:31:03;20.00;99.90
55211;DHT22;41082;52.822;6.666;2022-07-10T14:33:33;20.10;99.90
55211;DHT22;41082;52.822;6.666;2022-07-10T14:35:59;20.20;99.90
55211;DHT22;41082;52.822;6.666;2022-07-10T14:38:25;20.30;99.90
55211;DHT22;41082;52.822;6.666;2022-07-10T14:40:51;20.30;99.90
55211;DHT22;41082;52.822;6.666;2022-07-10T14:43:18;20.40;99.90
55211;DHT22;41082;52.822;6.666;2022-07-10T14:45:44;20.50;99.90
55211;DHT22;41082;52.822;6.666;2022-07-10T14:48:10;20.50;99.90
55211;DHT22;41082;52.822;6.666;2022-07-10T14:50:35;20.60;99.90
55211;DHT22;41082;52.822;6.666;2022-07-10T14:53:01;20.60;99.90
55211;DHT22;41082;52.822;6.666;2022-07-10T14:55:27;20.70;99.90
55211;DHT22;41082;52.822;6.666;2022-07-10T14:57:52;20.70;99.90
55211;DHT22;41082;52.822;6.666;2022-07-10T15:00:18;20.70;99.90
55211;DHT22;41082;52.822;6.666;2022-07-10T15:02:44;20.60;99.90
55211;DHT22;41082;52.822;6.666;2022-07-10T15:05:09;20.60;99.90
55211;DHT22;41082;52.822;6.666;2022-07-10T15:07:35;20.50;99.90
55211;DHT22;41082;52.822;6.666;2022-07-10T15:10:00;20.50;99.90
55211;DHT22;41082;52.822;6.666;2022-07-10T15:12:26;20.50;99.90
55211;DHT22;41082;52.822;6.666;2022-07-10T15:14:52;20.60;99.90
55211;DHT22;41082;52.822;6.666;2022-07-10T15:17:18;20.60;99.90
55211;DHT22;41082;52.822;6.666;2022-07-10T15:19:44;20.70;99.90
55211;DHT22;41082;52.822;6.666;2022-07-10T15:22:09;20.80;99.90
55211;DHT22;41082;52.822;6.666;2022-07-10T15:24:35;20.90;99.90
55211;DHT22;41082;52.822;6.666;2022-07-10T15:27:01;20.90;99.90
55211;DHT22;41082;52.822;6.666;2022-07-10T15:29:27;20.90;99.90
55211;DHT22;41082;52.822;6.666;2022-07-10T15:31:52;21.00;99.90
55211;DHT22;41082;52.822;6.666;2022-07-10T15:34:18;20.90;99.90
55211;DHT22;41082;52.822;6.666;2022-07-10T15:36:44;21.00;99.90
55211;DHT22;41082;52.822;6.666;2022-07-10T15:39:14;21.00;99.90
55211;DHT22;41082;52.822;6.666;2022-07-10T15:41:40;20.90;99.90
55211;DHT22;41082;52.822;6.666;2022-07-10T15:44:10;20.90;99.90
55211;DHT22;41082;52.822;6.666;2022-07-10T15:46:36;20.90;99.90
55211;DHT22;41082;52.822;6.666;2022-07-10T15:49:02;21.00;99.90
55211;DHT22;41082;52.822;6.666;2022-07-10T15:51:28;21.00;99.90
55211;DHT22;41082;52.822;6.666;2022-07-10T15:53:55;21.00;99.90